Time;durP1;ratioP1;P1;durP2;ratioP2;P2;SDS_P1;SDS_P2;PMS_P1;PMS_P2;Temp;Humidity;BMP_temperature;BMP_pressure;BME280_temperature;BME280_humidity;BME280_pressure;Samples;Min_cycle;Max_cycle;Signal;HPM_P1;HPM_P2
2022/01/04 00:01:13;;;;;;;3.10;1.10;;;8.40;99.90;;;;;;4994533;28;20529;-70
2022/01/04 00:03:40;;;;;;;2.60;0.80;;;8.40;99.90;;;;;;4994309;28;20192;-70
2022/01/04 00:06:07;;;;;;;1.30;0.60;;;8.40;99.90;;;;;;4995050;28;20422;-70
2022/01/04 00:08:33;;;;;;;1.97;0.80;;;8.40;99.90;;;;;;4990782;28;20437;-70
2022/01/04 00:11:08;;;;;;;1.77;1.00;;;8.40;99.90;;;;;;4993895;28;20423;-70
2022/01/04 00:13:34;;;;;;;2.13;0.80;;;8.40;99.90;;;;;;4996493;28;20191;-70
2022/01/04 00:15:59;;;;;;;3.57;0.77;;;8.30;99.90;;;;;;4999512;28;20728;-71
2022/01/04 00:18:26;;;;;;;7.00;2.57;;;8.40;99.90;;;;;;4995063;28;20188;-70
2022/01/04 00:20:52;;;;;;;2.80;0.87;;;8.40;99.90;;;;;;4999167;28;20513;-70
2022/01/04 00:23:18;;;;;;;3.27;0.70;;;8.40;99.90;;;;;;4997894;28;20506;-70
2022/01/04 00:25:44;;;;;;;4.17;1.07;;;8.40;99.90;;;;;;4999663;28;20418;-70
2022/01/04 00:28:11;;;;;;;3.70;0.80;;;8.40;99.90;;;;;;4991714;28;20418;-70
2022/01/04 00:30:41;;;;;;;1.53;0.63;;;8.40;99.90;;;;;;4989801;28;20881;-70
2022/01/04 00:33:08;;;;;;;2.03;0.73;;;8.40;99.90;;;;;;4989264;28;20473;-70
2022/01/04 00:35:34;;;;;;;2.20;0.80;;;8.40;99.90;;;;;;4990397;28;20981;-70
2022/01/04 00:38:00;;;;;;;2.50;1.10;;;8.40;99.90;;;;;;4990377;28;20427;-71
2022/01/04 00:40:26;;;;;;;4.47;1.00;;;8.40;99.90;;;;;;4992201;28;20733;-70
2022/01/04 00:42:55;;;;;;;1.60;0.97;;;8.40;99.90;;;;;;4993041;28;20640;-70
2022/01/04 00:45:22;;;;;;;1.50;0.80;;;8.50;99.90;;;;;;4992797;28;20517;-70
2022/01/04 00:50:20;;;;;;;2.00;0.83;;;8.40;99.90;;;;;;4994566;28;20828;-70
2022/01/04 00:52:46;;;;;;;1.43;0.77;;;8.40;99.90;;;;;;4990227;28;20838;-71
2022/01/04 00:55:12;;;;;;;1.40;0.80;;;8.40;99.90;;;;;;4991275;28;20485;-70
2022/01/04 00:57:37;;;;;;;1.70;0.70;;;8.40;99.90;;;;;;4992247;28;20383;-70
2022/01/04 01:00:05;;;;;;;2.57;0.93;;;8.40;99.90;;;;;;4995666;28;20496;-70
2022/01/04 01:02:31;;;;;;;2.13;0.97;;;8.40;99.90;;;;;;4992420;28;20222;-70
2022/01/04 01:04:56;;;;;;;4.10;1.53;;;8.40;99.90;;;;;;4996851;28;20441;-70
2022/01/04 01:07:22;;;;;;;1.40;0.77;;;8.40;99.90;;;;;;4992919;28;20692;-70
2022/01/04 01:10:08;;;;;;;3.20;1.07;;;8.40;99.90;;;;;;4998096;28;20211;-70
2022/01/04 01:12:34;;;;;;;1.43;0.57;;;8.40;99.90;;;;;;4996226;28;20222;-70
2022/01/04 01:15:00;;;;;;;2.10;1.00;;;8.40;99.90;;;;;;4999957;28;20777;-70
2022/01/04 01:17:25;;;;;;;5.47;0.90;;;8.30;99.90;;;;;;4994401;28;20211;-70
2022/01/04 01:19:51;;;;;;;5.87;1.23;;;8.30;99.90;;;;;;4988537;28;20636;-70
2022/01/04 01:22:17;;;;;;;2.63;1.07;;;8.30;99.90;;;;;;4990158;28;20519;-70
2022/01/04 01:24:43;;;;;;;1.67;0.97;;;8.30;99.90;;;;;;4989843;28;20215;-70
2022/01/04 01:27:08;;;;;;;4.07;0.90;;;8.30;99.90;;;;;;4989834;28;20191;-70
2022/01/04 01:29:34;;;;;;;2.17;0.90;;;8.30;99.90;;;;;;4990465;28;20516;-70
2022/01/04 01:32:00;;;;;;;3.00;1.20;;;8.30;99.90;;;;;;5000046;28;20210;-70
2022/01/04 01:34:26;;;;;;;3.87;1.50;;;8.30;99.90;;;;;;4990458;28;20204;-70
2022/01/04 01:36:52;;;;;;;3.00;1.00;;;8.30;99.90;;;;;;4993042;28;20183;-71
2022/01/04 01:39:18;;;;;;;2.53;1.00;;;8.20;99.90;;;;;;4991043;28;20430;-70
2022/01/04 01:41:44;;;;;;;3.03;1.33;;;8.50;99.90;;;;;;4994335;28;20896;-70
2022/01/04 01:44:09;;;;;;;2.20;1.10;;;8.40;99.90;;;;;;4992095;28;20215;-70
2022/01/04 01:46:35;;;;;;;2.53;1.33;;;8.30;99.90;;;;;;4994626;28;20278;-70
2022/01/04 01:49:01;;;;;;;2.53;1.10;;;8.40;99.90;;;;;;4993514;28;20184;-70
2022/01/04 01:51:30;;;;;;;1.40;0.70;;;8.40;99.90;;;;;;4995141;28;20218;-70
2022/01/04 01:53:56;;;;;;;2.53;0.80;;;8.40;99.90;;;;;;4994045;28;20176;-70
2022/01/04 01:56:22;;;;;;;2.93;0.90;;;8.40;99.90;;;;;;4993275;28;20903;-70
2022/01/04 01:58:47;;;;;;;2.23;1.17;;;8.40;99.90;;;;;;4992424;28;20203;-70
2022/01/04 02:01:13;;;;;;;1.70;0.90;;;8.40;99.90;;;;;;4995151;28;20203;-71
2022/01/04 02:03:40;;;;;;;4.13;1.40;;;8.40;99.90;;;;;;4996046;28;20199;-70
2022/01/04 02:06:06;;;;;;;2.63;1.10;;;8.50;99.90;;;;;;4996234;28;20878;-70
2022/01/04 02:08:32;;;;;;;1.53;0.87;;;8.50;99.90;;;;;;4997009;28;20435;-70
2022/01/04 02:10:59;;;;;;;2.40;1.00;;;8.50;99.90;;;;;;4987861;28;20754;-70
2022/01/04 02:13:25;;;;;;;2.43;0.87;;;8.50;99.90;;;;;;4997398;28;20940;-70
2022/01/04 02:16:02;;;;;;;3.93;1.00;;;8.50;99.90;;;;;;4990941;28;20413;-70
2022/01/04 02:18:28;;;;;;;1.97;1.10;;;8.60;99.90;;;;;;4988358;28;20771;-70
2022/01/04 02:20:54;;;;;;;2.00;1.10;;;8.60;99.90;;;;;;4987343;28;20809;-70
2022/01/04 02:23:20;;;;;;;2.30;1.23;;;8.60;99.90;;;;;;4992926;28;20865;-70
2022/01/04 02:25:48;;;;;;;1.63;0.90;;;8.80;99.90;;;;;;4990312;28;20191;-70
2022/01/04 02:28:18;;;;;;;1.90;0.77;;;8.80;99.90;;;;;;4988030;28;20658;-70
2022/01/04 02:30:44;;;;;;;4.67;1.33;;;8.90;99.90;;;;;;4991538;28;20419;-70
2022/01/04 02:33:10;;;;;;;3.30;0.97;;;8.90;99.90;;;;;;4989791;28;20474;-70
2022/01/04 02:35:35;;;;;;;2.47;1.47;;;8.90;99.90;;;;;;4992802;28;20418;-70
2022/01/04 02:38:02;;;;;;;2.87;1.00;;;9.00;99.90;;;;;;4990760;28;20473;-71
2022/01/04 02:40:28;;;;;;;3.00;1.13;;;9.00;99.90;;;;;;4994676;28;20195;-70
2022/01/04 02:42:54;;;;;;;3.30;1.30;;;9.00;99.90;;;;;;4991233;28;20430;-70
2022/01/04 02:45:20;;;;;;;2.73;1.00;;;9.00;99.90;;;;;;4995672;28;20429;-70
2022/01/04 02:47:47;;;;;;;6.13;1.40;;;9.10;99.90;;;;;;4991851;28;20184;-70
2022/01/04 02:50:13;;;;;;;2.53;1.27;;;9.10;99.90;;;;;;4997200;28;20448;-71
2022/01/04 02:52:39;;;;;;;1.90;0.70;;;9.00;99.90;;;;;;4992074;28;20466;-71
2022/01/04 02:55:07;;;;;;;3.30;1.20;;;9.00;99.90;;;;;;4997997;28;20229;-71
2022/01/04 02:57:34;;;;;;;1.90;0.90;;;9.10;99.90;;;;;;4992987;28;20422;-70
2022/01/04 02:59:59;;;;;;;1.80;0.83;;;9.20;99.90;;;;;;4999787;28;20453;-70
2022/01/04 03:02:25;;;;;;;1.70;0.73;;;9.20;99.90;;;;;;4993043;28;20438;-70
2022/01/04 03:04:51;;;;;;;1.60;0.80;;;9.30;99.90;;;;;;4986361;28;20578;-70
2022/01/04 03:07:17;;;;;;;1.40;0.70;;;9.30;99.90;;;;;;4986884;28;20450;-70
2022/01/04 03:09:43;;;;;;;6.07;0.87;;;9.30;99.90;;;;;;4989886;28;20735;-70
2022/01/04 03:12:09;;;;;;;3.47;0.90;;;9.40;99.90;;;;;;4991071;28;20270;-70
2022/01/04 03:14:35;;;;;;;1.70;1.07;;;9.30;99.90;;;;;;4993821;28;20238;-71
2022/01/04 03:17:01;;;;;;;2.43;0.90;;;9.30;99.90;;;;;;4991830;28;21072;-70
2022/01/04 03:19:27;;;;;;;3.10;0.93;;;9.30;99.90;;;;;;4995215;28;20188;-70
2022/01/04 03:21:52;;;;;;;1.43;0.60;;;9.30;99.90;;;;;;4992892;28;20426;-70
2022/01/04 03:24:18;;;;;;;1.90;1.00;;;9.30;99.90;;;;;;4995908;28;20202;-70
2022/01/04 03:26:44;;;;;;;1.53;0.70;;;9.30;99.90;;;;;;4993320;28;20696;-70
2022/01/04 03:29:12;;;;;;;1.70;0.80;;;9.30;99.90;;;;;;4996718;28;20276;-70
2022/01/04 03:31:39;;;;;;;1.50;0.83;;;9.20;99.90;;;;;;4994223;28;20474;-70
2022/01/04 03:34:05;;;;;;;1.60;0.60;;;9.20;99.90;;;;;;4994895;28;20495;-70
2022/01/04 03:36:31;;;;;;;1.63;0.80;;;9.10;99.90;;;;;;4995016;28;20835;-70
2022/01/04 03:38:58;;;;;;;4.73;1.13;;;9.20;99.90;;;;;;4999552;28;20183;-70
2022/01/04 03:41:26;;;;;;;2.17;0.93;;;9.20;99.90;;;;;;4996341;28;21053;-70
2022/01/04 03:43:53;;;;;;;3.60;1.30;;;9.10;99.90;;;;;;4994825;28;20431;-70
2022/01/04 03:46:19;;;;;;;4.03;0.87;;;9.10;99.90;;;;;;4997405;28;20418;-71
2022/01/04 03:48:45;;;;;;;9.27;0.80;;;9.20;99.90;;;;;;4995356;28;20415;-70
2022/01/04 03:51:11;;;;;;;4.83;1.03;;;9.10;99.90;;;;;;4990577;28;20461;-71
2022/01/04 03:53:37;;;;;;;1.50;0.70;;;9.10;99.90;;;;;;4990468;28;20466;-70
2022/01/04 03:56:04;;;;;;;3.27;0.80;;;9.10;99.90;;;;;;4991161;28;20415;-70
2022/01/04 03:58:30;;;;;;;1.30;0.60;;;9.10;99.90;;;;;;4991161;28;20226;-70
2022/01/04 04:00:56;;;;;;;1.80;0.70;;;9.20;99.90;;;;;;4997742;28;20885;-70
2022/01/04 04:03:22;;;;;;;1.30;0.53;;;9.20;99.90;;;;;;4992990;28;20430;-70
2022/01/04 04:05:49;;;;;;;3.00;0.93;;;9.20;99.90;;;;;;4992495;28;20895;-70
2022/01/04 04:08:15;;;;;;;3.03;1.03;;;9.20;99.90;;;;;;4991606;28;20180;-70
2022/01/04 04:10:40;;;;;;;1.40;0.60;;;9.20;99.90;;;;;;4992954;28;20442;-70
2022/01/04 04:13:06;;;;;;;1.20;0.53;;;9.20;99.90;;;;;;4997492;28;20567;-70
2022/01/04 04:15:32;;;;;;;2.80;0.70;;;9.20;99.90;;;;;;4994180;28;20187;-70
2022/01/04 04:17:58;;;;;;;4.90;0.90;;;9.30;99.90;;;;;;4992957;28;20712;-70
2022/01/04 04:20:24;;;;;;;1.97;0.90;;;9.30;99.90;;;;;;4992619;28;20628;-69
2022/01/04 04:22:49;;;;;;;1.70;0.70;;;9.30;99.90;;;;;;4994209;28;20188;-70
2022/01/04 04:25:15;;;;;;;1.93;0.83;;;9.30;99.90;;;;;;4991779;28;20431;-70
2022/01/04 04:27:41;;;;;;;1.60;0.73;;;9.30;99.90;;;;;;4995923;28;20184;-71
2022/01/04 04:30:08;;;;;;;1.70;0.80;;;9.20;99.90;;;;;;4993288;28;20250;-70
2022/01/04 04:32:34;;;;;;;1.87;0.63;;;9.20;99.90;;;;;;4996631;28;20478;-70
2022/01/04 04:35:00;;;;;;;1.60;0.60;;;9.20;99.90;;;;;;4994082;28;20439;-70
2022/01/04 04:37:25;;;;;;;1.70;0.73;;;9.20;99.90;;;;;;4998337;28;20179;-70
2022/01/04 04:39:51;;;;;;;1.30;0.60;;;9.20;99.90;;;;;;4994016;28;20258;-70
2022/01/04 04:42:17;;;;;;;1.60;0.80;;;9.20;99.90;;;;;;4998508;28;20252;-70
2022/01/04 04:44:45;;;;;;;2.10;0.83;;;9.20;99.90;;;;;;4994885;28;20463;-70
2022/01/04 04:47:11;;;;;;;2.10;0.80;;;9.20;99.90;;;;;;4998861;28;20179;-70
2022/01/04 04:49:36;;;;;;;2.63;0.80;;;9.10;99.90;;;;;;4995651;28;20427;-70
2022/01/04 04:52:02;;;;;;;1.73;0.70;;;9.10;99.90;;;;;;5005513;28;20465;-70
2022/01/04 04:54:28;;;;;;;2.67;0.80;;;9.10;99.90;;;;;;4995543;28;20183;-70
2022/01/04 04:56:54;;;;;;;1.50;0.60;;;9.10;99.90;;;;;;4988890;28;20465;-70
2022/01/04 04:59:20;;;;;;;2.53;1.00;;;9.10;99.90;;;;;;4983707;28;20193;-70
2022/01/04 05:01:45;;;;;;;3.83;0.87;;;9.10;99.90;;;;;;4989465;28;20879;-70
2022/01/04 05:04:11;;;;;;;1.87;1.07;;;9.10;99.90;;;;;;4988945;28;20234;-70
2022/01/04 05:06:36;;;;;;;1.60;0.83;;;9.10;99.90;;;;;;4990872;28;20259;-69
2022/01/04 05:09:02;;;;;;;1.50;0.60;;;9.10;99.90;;;;;;4989756;28;20180;-70
2022/01/04 05:11:29;;;;;;;2.37;0.77;;;9.10;99.90;;;;;;4990375;28;20190;-69
2022/01/04 05:13:55;;;;;;;3.23;0.73;;;9.10;99.90;;;;;;4992943;28;20426;-70
2022/01/04 05:16:21;;;;;;;1.40;0.60;;;9.10;99.90;;;;;;4992553;28;20423;-69
2022/01/04 05:18:47;;;;;;;3.87;0.80;;;9.10;99.90;;;;;;4991628;28;20427;-70
2022/01/04 05:21:13;;;;;;;2.13;1.30;;;9.00;99.90;;;;;;4994527;28;20211;-73
2022/01/04 05:23:38;;;;;;;1.60;0.80;;;9.10;99.90;;;;;;4991941;28;20653;-70
2022/01/04 05:26:04;;;;;;;1.20;0.50;;;9.00;99.90;;;;;;4995777;28;20184;-70
2022/01/04 05:28:30;;;;;;;1.57;0.73;;;9.00;99.90;;;;;;4993079;28;20187;-70
2022/01/04 05:30:55;;;;;;;1.90;0.73;;;9.10;99.90;;;;;;4997208;28;20195;-70
2022/01/04 05:33:21;;;;;;;2.47;1.13;;;9.00;99.90;;;;;;4991711;28;20470;-70
2022/01/04 05:35:48;;;;;;;1.20;0.57;;;9.00;99.90;;;;;;4998055;28;20178;-70
2022/01/04 05:38:15;;;;;;;1.57;0.67;;;9.00;99.90;;;;;;4997046;28;20167;-71
2022/01/04 05:40:42;;;;;;;2.60;0.70;;;9.00;99.90;;;;;;4997951;28;20426;-70
2022/01/04 05:43:08;;;;;;;1.50;0.80;;;9.00;99.90;;;;;;4994068;28;20447;-71
2022/01/04 05:45:34;;;;;;;1.63;0.77;;;9.00;99.90;;;;;;4993302;28;20473;-71
2022/01/04 05:47:59;;;;;;;1.47;0.70;;;9.00;99.90;;;;;;4986822;28;20184;-71
2022/01/04 05:50:25;;;;;;;1.40;0.70;;;9.00;99.90;;;;;;4988204;28;20657;-71
2022/01/04 05:52:51;;;;;;;2.17;0.80;;;8.90;99.90;;;;;;4981767;28;20215;-71
2022/01/04 05:55:16;;;;;;;1.60;0.60;;;8.90;99.90;;;;;;4988394;28;20263;-71
2022/01/04 05:57:42;;;;;;;1.83;0.70;;;8.90;99.90;;;;;;4988799;28;20189;-71
2022/01/04 06:00:09;;;;;;;1.50;0.70;;;8.80;99.90;;;;;;4990005;28;20218;-71
2022/01/04 06:02:35;;;;;;;2.30;0.93;;;8.90;99.90;;;;;;4988806;28;20184;-71
2022/01/04 06:05:01;;;;;;;1.30;0.60;;;8.80;99.90;;;;;;4990431;28;20446;-72
2022/01/04 06:07:27;;;;;;;1.50;0.80;;;8.90;99.90;;;;;;4990344;28;20474;-72
2022/01/04 06:09:54;;;;;;;2.30;0.90;;;8.90;99.90;;;;;;4992529;28;20427;-71
2022/01/04 06:15:03;;;;;;;2.20;1.10;;;8.90;99.90;;;;;;4992461;28;20514;-71
2022/01/04 06:17:34;;;;;;;2.83;1.00;;;8.90;99.90;;;;;;4990895;28;20910;-71
2022/01/04 06:20:04;;;;;;;1.40;0.70;;;8.90;99.90;;;;;;4987466;28;20423;-71
2022/01/04 06:22:30;;;;;;;1.30;0.87;;;8.80;99.90;;;;;;4996281;28;20520;-71
2022/01/04 06:24:56;;;;;;;1.27;0.60;;;8.80;99.90;;;;;;4991922;28;20899;-71
2022/01/04 06:27:22;;;;;;;2.17;1.33;;;8.80;99.90;;;;;;4991980;28;20195;-72
2022/01/04 06:29:48;;;;;;;1.33;0.70;;;8.80;99.90;;;;;;5001566;28;20583;-71
2022/01/04 06:32:15;;;;;;;1.50;0.70;;;8.80;99.90;;;;;;4997403;28;20496;-72
2022/01/04 06:34:42;;;;;;;1.97;0.80;;;8.80;99.90;;;;;;4994056;28;20942;-71
2022/01/04 06:37:09;;;;;;;2.63;0.70;;;8.80;99.90;;;;;;4997895;28;20430;-71
2022/01/04 06:39:36;;;;;;;2.53;1.30;;;8.80;99.90;;;;;;4994992;28;20430;-71
2022/01/04 06:42:02;;;;;;;2.40;1.03;;;8.80;99.90;;;;;;4987034;28;20427;-71
2022/01/04 06:44:28;;;;;;;2.60;0.77;;;8.80;99.90;;;;;;4987069;28;20955;-71
2022/01/04 06:46:53;;;;;;;2.33;0.80;;;8.70;99.90;;;;;;4986766;28;20430;-71
2022/01/04 06:49:19;;;;;;;2.90;0.70;;;8.80;99.90;;;;;;4987411;28;20202;-71
2022/01/04 06:51:47;;;;;;;2.37;0.90;;;8.80;99.90;;;;;;4988794;28;20290;-71
2022/01/04 06:54:16;;;;;;;2.10;1.23;;;8.80;99.90;;;;;;4987853;28;20593;-72
2022/01/04 06:56:42;;;;;;;2.37;0.70;;;8.90;99.90;;;;;;4990003;28;21218;-71
2022/01/04 06:59:08;;;;;;;2.40;0.90;;;8.80;99.90;;;;;;4987894;28;20971;-72
2022/01/04 07:01:36;;;;;;;4.80;1.10;;;8.90;99.90;;;;;;4990902;28;21297;-71
2022/01/04 07:04:02;;;;;;;1.73;0.80;;;8.90;99.90;;;;;;4989627;28;20806;-71
2022/01/04 07:06:28;;;;;;;1.97;0.70;;;9.00;99.90;;;;;;4991947;28;20465;-71
2022/01/04 07:08:54;;;;;;;2.80;0.80;;;9.00;99.90;;;;;;4988087;28;20526;-71
2022/01/04 07:11:20;;;;;;;2.27;1.03;;;9.20;99.90;;;;;;4986912;28;20433;-71
2022/01/04 07:13:45;;;;;;;3.30;1.53;;;9.20;99.90;;;;;;4993815;28;20233;-71
2022/01/04 07:16:11;;;;;;;1.70;0.83;;;9.20;99.90;;;;;;4994523;28;20282;-71
2022/01/04 07:18:37;;;;;;;2.70;0.90;;;9.30;99.90;;;;;;4988203;28;20651;-72
2022/01/04 07:21:03;;;;;;;2.90;1.20;;;9.30;99.90;;;;;;5001862;28;20203;-71
2022/01/04 07:23:29;;;;;;;1.53;0.60;;;9.30;99.90;;;;;;4991385;28;20207;-71
2022/01/04 07:25:55;;;;;;;1.77;1.00;;;9.40;99.90;;;;;;4997531;28;20206;-71
2022/01/04 07:28:21;;;;;;;3.00;1.00;;;9.50;99.90;;;;;;4992717;28;20418;-71
2022/01/04 07:30:48;;;;;;;2.83;1.40;;;9.50;99.90;;;;;;4998753;28;20429;-71
2022/01/04 07:33:15;;;;;;;1.70;0.70;;;9.60;99.90;;;;;;4986480;28;20480;-71
2022/01/04 07:35:41;;;;;;;3.10;1.00;;;9.70;99.90;;;;;;4986661;28;20955;-71
2022/01/04 07:38:06;;;;;;;3.30;1.53;;;9.70;99.90;;;;;;4986683;28;20435;-71
2022/01/04 07:40:32;;;;;;;3.63;1.33;;;9.70;99.90;;;;;;4987756;28;20184;-71
2022/01/04 07:43:00;;;;;;;1.60;1.00;;;9.70;99.90;;;;;;4987576;28;20206;-71
2022/01/04 07:45:29;;;;;;;1.57;0.83;;;9.70;99.90;;;;;;4988394;28;20543;-71
2022/01/04 07:47:56;;;;;;;1.27;0.53;;;9.70;99.90;;;;;;4987348;28;20455;-73
2022/01/04 07:50:22;;;;;;;2.20;0.87;;;9.80;99.90;;;;;;4988284;28;20767;-71
2022/01/04 07:52:47;;;;;;;1.60;0.70;;;9.90;99.90;;;;;;4988667;28;20494;-71
2022/01/04 07:55:13;;;;;;;1.80;0.90;;;9.90;99.90;;;;;;4991637;28;20195;-70
2022/01/04 07:57:40;;;;;;;1.30;0.57;;;9.90;99.90;;;;;;4990624;28;20198;-71
2022/01/04 08:00:07;;;;;;;1.60;0.70;;;10.00;99.90;;;;;;4996292;28;20199;-71
2022/01/04 08:02:33;;;;;;;3.00;1.30;;;9.90;99.90;;;;;;4993410;28;20423;-71
2022/01/04 08:04:59;;;;;;;3.47;0.70;;;10.00;99.90;;;;;;4995851;28;20477;-71
2022/01/04 08:07:24;;;;;;;4.00;0.77;;;10.00;99.90;;;;;;4993881;28;20532;-71
2022/01/04 08:09:50;;;;;;;1.50;0.70;;;10.10;99.90;;;;;;4999253;28;20274;-71
2022/01/04 08:12:17;;;;;;;2.67;0.93;;;10.10;99.90;;;;;;4993947;28;20289;-71
2022/01/04 08:14:44;;;;;;;1.80;0.87;;;10.10;99.90;;;;;;5000598;28;20221;-71
2022/01/04 08:17:11;;;;;;;2.70;1.20;;;10.10;99.90;;;;;;4993631;28;20865;-71
2022/01/04 08:19:36;;;;;;;2.57;0.80;;;10.10;99.90;;;;;;5000142;28;20426;-71
2022/01/04 08:22:03;;;;;;;3.23;1.50;;;10.20;99.90;;;;;;4996600;28;20485;-71
2022/01/04 08:24:28;;;;;;;1.53;0.80;;;10.20;99.90;;;;;;5001573;28;20672;-71
2022/01/04 08:26:54;;;;;;;1.63;0.70;;;10.20;99.90;;;;;;4995518;28;20925;-71
2022/01/04 08:29:20;;;;;;;2.43;1.07;;;10.20;99.90;;;;;;4989878;28;20230;-71
2022/01/04 08:31:45;;;;;;;1.20;0.50;;;10.30;99.90;;;;;;4989418;28;20187;-71
2022/01/04 08:34:11;;;;;;;1.50;0.70;;;10.30;99.90;;;;;;4989985;28;20190;-71
2022/01/04 08:36:38;;;;;;;1.40;0.50;;;10.30;99.90;;;;;;4990292;28;20271;-71
2022/01/04 08:39:04;;;;;;;1.90;0.67;;;10.30;99.90;;;;;;4991182;28;20184;-71
2022/01/04 08:41:30;;;;;;;1.20;0.60;;;10.40;99.90;;;;;;4991057;28;20435;-71
2022/01/04 08:43:56;;;;;;;6.57;0.90;;;10.40;99.90;;;;;;4992756;28;20910;-70
2022/01/04 08:46:22;;;;;;;2.77;0.83;;;10.50;99.90;;;;;;4991158;28;20200;-70
2022/01/04 08:48:48;;;;;;;2.27;1.00;;;10.50;99.90;;;;;;4993912;28;20544;-70
2022/01/04 08:51:14;;;;;;;1.50;0.70;;;10.60;99.90;;;;;;4992597;28;20987;-70
2022/01/04 08:53:40;;;;;;;4.47;0.90;;;10.60;99.90;;;;;;4994373;28;20561;-71
2022/01/04 08:56:06;;;;;;;1.60;0.83;;;10.70;99.90;;;;;;4991876;28;20426;-71
2022/01/04 08:58:32;;;;;;;4.43;1.40;;;10.70;99.90;;;;;;4993845;28;20515;-71
2022/01/04 09:00:59;;;;;;;1.13;0.50;;;10.70;99.90;;;;;;4997095;28;20438;-70
2022/01/04 09:03:25;;;;;;;2.27;0.90;;;10.80;99.90;;;;;;4995565;28;20588;-70
2022/01/04 09:05:51;;;;;;;1.27;0.57;;;10.80;99.90;;;;;;4993725;28;20508;-70
2022/01/04 09:08:17;;;;;;;1.60;0.63;;;10.80;99.90;;;;;;4996399;28;20187;-70
2022/01/04 09:10:42;;;;;;;1.50;0.60;;;10.90;99.90;;;;;;4993447;28;20423;-70
2022/01/04 09:13:16;;;;;;;1.40;0.67;;;10.80;99.90;;;;;;4999006;28;20246;-70
2022/01/04 09:18:45;;;;;;;1.30;0.50;;;10.70;99.90;;;;;;4995339;28;21053;-71
2022/01/04 09:21:13;;;;;;;1.43;0.70;;;10.80;99.90;;;;;;4988478;28;20425;-70
2022/01/04 09:23:39;;;;;;;1.60;0.60;;;10.70;99.90;;;;;;4989140;28;20415;-70
2022/01/04 09:26:05;;;;;;;5.83;1.13;;;10.70;99.90;;;;;;4989205;28;20435;-71
2022/01/04 09:28:31;;;;;;;1.40;0.60;;;10.70;99.90;;;;;;4989702;28;20435;-71
2022/01/04 09:30:57;;;;;;;2.03;0.67;;;10.70;99.90;;;;;;4990023;28;20266;-70
2022/01/04 09:33:23;;;;;;;2.20;0.70;;;10.60;99.90;;;;;;4989376;28;20220;-71
2022/01/04 09:35:49;;;;;;;2.10;0.90;;;10.60;99.90;;;;;;4990618;28;20431;-70
2022/01/04 09:38:17;;;;;;;1.40;0.60;;;10.60;99.90;;;;;;4990333;28;20262;-71
2022/01/04 09:40:44;;;;;;;2.50;1.30;;;10.50;99.90;;;;;;4991792;28;20430;-70
2022/01/04 09:43:10;;;;;;;3.50;1.40;;;10.50;99.90;;;;;;4991172;28;20441;-70
2022/01/04 09:45:36;;;;;;;4.33;1.80;;;10.50;99.90;;;;;;4992736;28;20435;-70
2022/01/04 09:48:02;;;;;;;4.73;0.90;;;10.50;99.90;;;;;;4990584;28;20586;-71
2022/01/04 09:50:31;;;;;;;3.77;1.90;;;10.50;99.90;;;;;;4999379;28;20493;-71
2022/01/04 09:52:57;;;;;;;3.67;1.63;;;10.50;99.90;;;;;;4992220;28;20470;-71
2022/01/04 09:55:23;;;;;;;1.30;0.60;;;10.40;99.90;;;;;;4993933;28;20437;-71
2022/01/04 09:57:48;;;;;;;2.40;1.00;;;10.40;99.90;;;;;;4992729;28;20435;-71
2022/01/04 10:00:17;;;;;;;1.73;0.70;;;10.40;99.90;;;;;;4995235;28;20210;-70
2022/01/04 10:02:44;;;;;;;2.70;0.90;;;10.40;99.90;;;;;;4992326;28;20192;-70
2022/01/04 10:05:23;;;;;;;2.23;0.80;;;10.30;99.90;;;;;;4995710;28;20423;-70
2022/01/04 10:08:00;;;;;;;2.10;1.20;;;10.30;99.90;;;;;;4994062;28;20475;-70
2022/01/04 10:10:26;;;;;;;1.53;0.70;;;10.20;99.90;;;;;;4992648;28;20429;-70
2022/01/04 10:13:01;;;;;;;2.70;0.90;;;10.20;99.90;;;;;;4998863;28;21152;-71
2022/01/04 10:15:47;;;;;;;2.57;0.90;;;10.20;99.90;;;;;;4989308;28;20442;-70
2022/01/04 10:18:13;;;;;;;3.40;1.20;;;10.30;99.90;;;;;;4987117;28;20864;-71
2022/01/04 10:20:47;;;;;;;2.17;1.00;;;10.30;99.90;;;;;;4988255;28;20434;-70
2022/01/04 10:23:22;;;;;;;2.57;1.33;;;10.30;99.90;;;;;;4988224;28;20195;-71
2022/01/04 10:25:50;;;;;;;2.03;1.13;;;10.20;99.90;;;;;;4989363;28;20849;-71
2022/01/04 10:28:32;;;;;;;2.03;0.70;;;10.30;99.90;;;;;;4988771;28;20529;-70
2022/01/04 10:31:03;;;;;;;4.20;1.27;;;10.30;99.90;;;;;;4989308;28;20458;-70
2022/01/04 10:33:31;;;;;;;5.30;1.00;;;10.40;99.90;;;;;;4991233;28;20566;-71
2022/01/04 10:35:58;;;;;;;3.20;1.13;;;10.50;99.90;;;;;;4990660;28;20430;-71
2022/01/04 10:38:36;;;;;;;4.37;1.30;;;10.50;99.90;;;;;;4989557;28;20415;-70
2022/01/04 10:41:04;;;;;;;1.73;0.80;;;10.50;99.90;;;;;;4985825;28;20430;-71
2022/01/04 10:43:43;;;;;;;3.23;1.33;;;10.60;99.90;;;;;;4994246;28;20426;-70
2022/01/04 10:46:09;;;;;;;6.00;1.37;;;10.60;99.90;;;;;;4990721;28;20425;-70
2022/01/04 10:48:41;;;;;;;2.13;0.80;;;10.60;99.90;;;;;;4995448;28;20433;-70
2022/01/04 10:51:10;;;;;;;6.60;1.27;;;10.70;99.90;;;;;;4991775;28;20458;-71
2022/01/04 10:53:39;;;;;;;1.83;0.70;;;10.60;99.90;;;;;;4992053;28;20466;-71
2022/01/04 10:56:11;;;;;;;1.97;0.90;;;10.60;99.90;;;;;;4991482;28;20418;-71
2022/01/04 10:58:45;;;;;;;1.80;0.70;;;10.60;99.90;;;;;;4996192;28;20426;-71
2022/01/04 11:01:21;;;;;;;2.00;0.80;;;10.50;99.90;;;;;;4994368;28;20460;-71
2022/01/04 11:03:56;;;;;;;1.87;0.97;;;10.60;99.90;;;;;;4995384;28;20458;-71
2022/01/04 11:06:26;;;;;;;2.50;0.80;;;10.50;99.90;;;;;;4997789;28;20488;-71
2022/01/04 11:08:52;;;;;;;1.30;0.70;;;10.60;99.90;;;;;;4988080;28;20447;-71
2022/01/04 11:11:18;;;;;;;2.70;1.00;;;10.60;99.90;;;;;;4981603;28;20980;-71
2022/01/04 11:13:44;;;;;;;1.47;0.77;;;10.60;99.90;;;;;;4993976;28;20207;-71
2022/01/04 11:16:10;;;;;;;2.30;1.10;;;10.70;99.90;;;;;;4989274;28;20477;-71
2022/01/04 11:18:41;;;;;;;3.17;1.33;;;10.70;99.90;;;;;;4988333;28;20191;-71
2022/01/04 11:21:13;;;;;;;2.10;1.40;;;10.60;99.90;;;;;;4988334;28;20183;-71
2022/01/04 11:23:40;;;;;;;2.60;1.00;;;10.60;99.90;;;;;;4989689;28;20426;-71
2022/01/04 11:26:06;;;;;;;3.50;1.13;;;10.60;99.90;;;;;;4990064;28;21062;-71
2022/01/04 11:28:33;;;;;;;1.70;0.90;;;10.50;99.90;;;;;;4993213;28;20419;-71
2022/01/04 11:31:28;;;;;;;1.50;0.70;;;10.50;99.90;;;;;;4992787;28;20480;-71
2022/01/04 11:34:17;;;;;;;7.13;1.00;;;10.40;99.90;;;;;;4986861;28;20520;-71
2022/01/04 11:36:50;;;;;;;2.90;0.87;;;10.40;99.90;;;;;;4995498;28;20438;-71
2022/01/04 11:39:38;;;;;;;2.27;0.80;;;10.40;99.90;;;;;;4995993;28;20469;-71
2022/01/04 11:42:07;;;;;;;1.80;1.00;;;10.30;99.90;;;;;;4999828;28;20426;-71
2022/01/04 11:44:42;;;;;;;1.80;1.03;;;10.30;99.90;;;;;;4991675;28;20803;-71
2022/01/04 11:47:15;;;;;;;5.00;1.37;;;10.30;99.90;;;;;;4990877;28;20422;-74
2022/01/04 11:50:03;;;;;;;3.57;1.20;;;10.20;99.90;;;;;;4997497;28;20423;-72
2022/01/04 11:52:41;;;;;;;2.30;1.30;;;10.20;99.90;;;;;;4997684;28;21283;-72
2022/01/04 11:55:16;;;;;;;1.80;0.70;;;10.20;99.90;;;;;;4990531;28;20429;-71
2022/01/04 11:57:41;;;;;;;2.13;0.80;;;10.20;99.90;;;;;;4984967;28;20410;-72
2022/01/04 12:00:09;;;;;;;2.80;1.00;;;10.20;99.90;;;;;;4990708;28;20489;-72
2022/01/04 12:02:38;;;;;;;2.30;1.10;;;10.20;99.90;;;;;;4991367;28;20195;-72
2022/01/04 12:05:22;;;;;;;2.40;0.80;;;10.20;99.90;;;;;;4990661;28;20513;-72
2022/01/04 12:07:50;;;;;;;1.80;0.90;;;10.20;99.90;;;;;;4990380;28;20947;-72
2022/01/04 12:10:22;;;;;;;2.40;1.07;;;10.10;99.90;;;;;;4991668;28;20919;-71
2022/01/04 12:13:09;;;;;;;1.70;0.90;;;10.10;99.90;;;;;;4994444;28;20475;-72
2022/01/04 12:15:35;;;;;;;2.90;1.27;;;10.10;99.90;;;;;;4995600;28;20848;-72
2022/01/04 12:18:05;;;;;;;1.83;0.70;;;10.10;99.90;;;;;;4995181;28;20463;-72
2022/01/04 12:20:43;;;;;;;4.27;1.00;;;10.10;99.90;;;;;;4998308;28;20621;-72
2022/01/04 12:23:24;;;;;;;1.80;0.87;;;10.10;99.90;;;;;;4986528;28;20430;-71
2022/01/04 12:26:05;;;;;;;3.30;1.47;;;10.10;99.90;;;;;;4995408;28;20452;-72
2022/01/04 12:28:42;;;;;;;1.93;0.90;;;10.10;99.90;;;;;;4991545;28;20850;-72
2022/01/04 12:31:15;;;;;;;5.87;1.57;;;10.10;99.90;;;;;;4994141;28;20946;-71
2022/01/04 12:33:44;;;;;;;1.40;0.80;;;10.00;99.90;;;;;;4994102;28;20465;-71
2022/01/04 12:36:22;;;;;;;6.97;2.17;;;10.00;99.90;;;;;;4993939;28;20419;-72
2022/01/04 12:38:48;;;;;;;6.03;1.07;;;10.00;99.90;;;;;;4999104;28;20421;-71
2022/01/04 12:41:15;;;;;;;2.43;1.07;;;10.00;99.90;;;;;;4994557;28;20727;-72
2022/01/04 12:43:42;;;;;;;1.90;1.10;;;10.00;99.90;;;;;;4998723;28;20457;-71
2022/01/04 12:46:08;;;;;;;2.00;0.90;;;10.00;99.90;;;;;;4988011;28;20939;-72
2022/01/04 12:48:47;;;;;;;2.70;1.13;;;10.00;99.90;;;;;;5000393;28;20418;-72
2022/01/04 12:51:31;;;;;;;2.30;1.20;;;10.00;99.90;;;;;;4984511;28;20470;-70
2022/01/04 12:54:00;;;;;;;12.63;1.47;;;10.00;99.90;;;;;;4989289;28;20549;-72
2022/01/04 12:56:26;;;;;;;1.60;0.80;;;10.00;99.90;;;;;;4989797;28;20431;-72
2022/01/04 12:58:52;;;;;;;3.40;1.07;;;10.00;99.90;;;;;;4989984;28;20986;-71
2022/01/04 13:01:29;;;;;;;1.60;0.70;;;10.00;99.90;;;;;;4991083;28;20600;-72
2022/01/04 13:03:56;;;;;;;3.00;0.90;;;10.00;99.90;;;;;;4990574;28;20435;-72